Map

Track Data

SID SEASON NUMBER BASIN SUBBASIN NAME ISO_TIME NATURE LAT LON WMO_WIND WMO_PRES WMO_AGENCY TRACK_TYPE DIST2LAND LANDFALL IFLAG USA_AGENCY USA_ATCF_ID USA_LAT USA_LON USA_RECORD USA_STATUS USA_WIND USA_PRES USA_SSHS USA_R34_NE USA_R34_SE USA_R34_SW USA_R34_NW USA_R50_NE USA_R50_SE USA_R50_SW USA_R50_NW USA_R64_NE USA_R64_SE USA_R64_SW USA_R64_NW USA_POCI USA_ROCI USA_RMW USA_EYE TOKYO_LAT TOKYO_LON TOKYO_GRADE TOKYO_WIND TOKYO_PRES TOKYO_R50_DIR TOKYO_R50_LONG TOKYO_R50_SHORT TOKYO_R30_DIR TOKYO_R30_LONG TOKYO_R30_SHORT TOKYO_LAND CMA_LAT CMA_LON CMA_CAT CMA_WIND CMA_PRES HKO_LAT HKO_LON HKO_CAT HKO_WIND HKO_PRES NEWDELHI_LAT NEWDELHI_LON NEWDELHI_GRADE NEWDELHI_WIND NEWDELHI_PRES NEWDELHI_CI NEWDELHI_DP NEWDELHI_POCI REUNION_LAT REUNION_LON REUNION_TYPE REUNION_WIND REUNION_PRES REUNION_TNUM REUNION_CI REUNION_RMW REUNION_R34_NE REUNION_R34_SE REUNION_R34_SW REUNION_R34_NW REUNION_R50_NE REUNION_R50_SE REUNION_R50_SW REUNION_R50_NW REUNION_R64_NE REUNION_R64_SE REUNION_R64_SW REUNION_R64_NW BOM_LAT BOM_LON BOM_TYPE BOM_WIND BOM_PRES BOM_TNUM BOM_CI BOM_RMW BOM_R34_NE BOM_R34_SE BOM_R34_SW BOM_R34_NW BOM_R50_NE BOM_R50_SE BOM_R50_SW BOM_R50_NW BOM_R64_NE BOM_R64_SE BOM_R64_SW BOM_R64_NW BOM_ROCI BOM_POCI BOM_EYE BOM_POS_METHOD BOM_PRES_METHOD NADI_LAT NADI_LON NADI_CAT NADI_WIND NADI_PRES WELLINGTON_LAT WELLINGTON_LON WELLINGTON_WIND WELLINGTON_PRES DS824_LAT DS824_LON DS824_STAGE DS824_WIND DS824_PRES TD9636_LAT TD9636_LON TD9636_STAGE TD9636_WIND TD9636_PRES TD9635_LAT TD9635_LON TD9635_WIND TD9635_PRES TD9635_ROCI NEUMANN_LAT NEUMANN_LON NEUMANN_CLASS NEUMANN_WIND NEUMANN_PRES MLC_LAT MLC_LON MLC_CLASS MLC_WIND MLC_PRES USA_GUST BOM_GUST BOM_GUST_PER REUNION_GUST REUNION_GUST_PER USA_SEAHGT USA_SEARAD_NE USA_SEARAD_SE USA_SEARAD_SW USA_SEARAD_NW STORM_SPEED STORM_DIR
1864112S10075 1864 8 SI MM NOT_NAMED 1864-04-20 18:00:00 NR -9.60000 75.1000 main 1840 1840 __________O___ -1 -9.60000 75.1000 7 11 247
1864112S10075 1864 8 SI MM NOT_NAMED 1864-04-20 21:00:00 NR -9.81625 74.5863 main 1879 1879 __________P___ -1 -9.81625 74.5863 7 11 247
1864112S10075 1864 8 SI MM NOT_NAMED 1864-04-21 00:00:00 NR -10.0357 74.0779 main 1920 1920 __________P___ -1 -10.0357 74.0779 7 11 246
1864112S10075 1864 8 SI MM NOT_NAMED 1864-04-21 03:00:00 NR -10.2623 73.5805 main 1971 1968 __________P___ -1 -10.2623 73.5805 7 11 244
1864112S10075 1864 8 SI MM NOT_NAMED 1864-04-21 06:00:00 NR -10.5000 73.1000 main 1968 1920 __________O___ -1 -10.5000 73.1000 7 10 242
1864112S10075 1864 8 SI MM NOT_NAMED 1864-04-21 09:00:00 NR -10.7507 72.6412 main 1904 1856 __________P___ -1 -10.7507 72.6412 7 10 240
1864112S10075 1864 8 SI MM NOT_NAMED 1864-04-21 12:00:00 NR -11.0072 72.2050 main 1856 1807 __________P___ -1 -11.0072 72.2050 7 10 239
1864112S10075 1864 8 SI MM NOT_NAMED 1864-04-21 15:00:00 NR -11.2601 71.7912 main 1800 1752 __________P___ -1 -11.2601 71.7912 7 9 238
1864112S10075 1864 8 SI MM NOT_NAMED 1864-04-21 18:00:00 NR -11.5000 71.4000 main 1752 1712 __________O___ -1 -11.5000 71.4000 7 9 239
1864112S10075 1864 8 SI MM NOT_NAMED 1864-04-21 21:00:00 NR -11.7099 71.0402 main 1703 1664 __________P___ -1 -11.7099 71.0402 7 8 239
1864112S10075 1864 8 SI MM NOT_NAMED 1864-04-22 00:00:00 NR -11.9070 70.6994 main 1664 1624 __________P___ -1 -11.9070 70.6994 7 8 240
1864112S10075 1864 8 SI MM NOT_NAMED 1864-04-22 03:00:00 NR -12.1005 70.3589 main 1624 1576 __________P___ -1 -12.1005 70.3589 7 8 240
1864112S10075 1864 8 SI MM NOT_NAMED 1864-04-22 06:00:00 NR -12.3000 70.0000 main 1576 1527 __________O___ -1 -12.3000 70.0000 7 9 241
1864112S10075 1864 8 SI MM NOT_NAMED 1864-04-22 09:00:00 NR -12.5096 69.5964 main 1527 1479 __________P___ -1 -12.5096 69.5964 7 9 242
1864112S10075 1864 8 SI MM NOT_NAMED 1864-04-22 12:00:00 NR -12.7274 69.1722 main 1479 1431 __________P___ -1 -12.7274 69.1722 7 10 242
1864112S10075 1864 8 SI MM NOT_NAMED 1864-04-22 15:00:00 NR -12.9565 68.7369 main 1415 1367 __________P___ -1 -12.9565 68.7369 7 10 241
1864112S10075 1864 8 SI MM NOT_NAMED 1864-04-22 18:00:00 NR -13.2000 68.3000 main 1367 1312 __________O___ -1 -13.2000 68.3000 7 10 239
1864112S10075 1864 8 SI MM NOT_NAMED 1864-04-22 21:00:00 NR -13.4769 67.8509 main 1312 1255 __________P___ -1 -13.4769 67.8509 7 10 237
1864112S10075 1864 8 SI MM NOT_NAMED 1864-04-23 00:00:00 NR -13.7651 67.4054 main 1249 1201 __________P___ -1 -13.7651 67.4054 7 10 236
1864112S10075 1864 8 SI MM NOT_NAMED 1864-04-23 03:00:00 NR -14.0457 66.9821 main 1201 1146 __________P___ -1 -14.0457 66.9821 7 9 236
1864112S10075 1864 8 SI MM NOT_NAMED 1864-04-23 06:00:00 NR -14.3000 66.6000 main 1146 1107 __________O___ -1 -14.3000 66.6000 7 8 236
1864112S10075 1864 8 SI MM NOT_NAMED 1864-04-23 09:00:00 NR -14.4911 66.2893 main 1107 1074 __________P___ -1 -14.4911 66.2893 7 7 238
1864112S10075 1864 8 SI MM NOT_NAMED 1864-04-23 12:00:00 NR -14.6569 66.0191 main 1067 1043 __________P___ -1 -14.6569 66.0191 7 6 237
1864112S10075 1864 8 SI MM NOT_NAMED 1864-04-23 15:00:00 NR -14.8193 65.7644 main 1043 1004 __________P___ -1 -14.8193 65.7644 7 6 236
1864112S10075 1864 8 SI MM NOT_NAMED 1864-04-23 18:00:00 NR -15.0000 65.5000 main 1004 965 __________O___ -1 -15.0000 65.5000 7 7 234
1864112S10075 1864 8 SI MM NOT_NAMED 1864-04-23 21:00:00 NR -15.2161 65.1972 main 965 926 __________P___ -1 -15.2161 65.1972 7 8 233
1864112S10075 1864 8 SI MM NOT_NAMED 1864-04-24 00:00:00 NR -15.4548 64.8796 main 919 880 __________P___ -1 -15.4548 64.8796 7 8 231
1864112S10075 1864 8 SI MM NOT_NAMED 1864-04-24 03:00:00 NR -15.7161 64.5471 main 871 826 __________P___ -1 -15.7161 64.5471 7 9 230
1864112S10075 1864 8 SI MM NOT_NAMED 1864-04-24 06:00:00 NR -16.0000 64.2000 main 826 771 __________O___ -1 -16.0000 64.2000 7 9 229
1864112S10075 1864 8 SI MM NOT_NAMED 1864-04-24 09:00:00 NR -16.3076 63.8273 main 771 726 __________P___ -1 -16.3076 63.8273 7 10 229
1864112S10075 1864 8 SI MM NOT_NAMED 1864-04-24 12:00:00 NR -16.6351 63.4427 main 717 666 __________P___ -1 -16.6351 63.4427 7 10 228
1864112S10075 1864 8 SI MM NOT_NAMED 1864-04-24 15:00:00 NR -16.9701 63.0617 main 666 612 __________P___ -1 -16.9701 63.0617 7 10 227
1864112S10075 1864 8 SI MM NOT_NAMED 1864-04-24 18:00:00 NR -17.3000 62.7000 main 612 568 __________O___ -1 -17.3000 62.7000 7 10 226
1864112S10075 1864 8 SI MM NOT_NAMED 1864-04-24 21:00:00 NR -17.6315 62.3460 main 559 514 __________P___ -1 -17.6315 62.3460 7 9 225
1864112S10075 1864 8 SI MM NOT_NAMED 1864-04-25 00:00:00 NR -17.9525 62.0177 main 509 470 __________P___ -1 -17.9525 62.0177 7 9 224
1864112S10075 1864 8 SI MM NOT_NAMED 1864-04-25 03:00:00 NR -18.2472 61.7305 main 470 437 __________P___ -1 -18.2472 61.7305 7 7 222
1864112S10075 1864 8 SI MM NOT_NAMED 1864-04-25 06:00:00 NR -18.5000 61.5000 main 437 417 __________O___ -1 -18.5000 61.5000 7 6 220
1864112S10075 1864 8 SI MM NOT_NAMED 1864-04-25 09:00:00 NR -18.6887 61.3459 main 408 403 __________P___ -1 -18.6887 61.3459 7 4 216
1864112S10075 1864 8 SI MM NOT_NAMED 1864-04-25 12:00:00 NR -18.8371 61.2467 main 393 384 __________P___ -1 -18.8371 61.2467 7 3 210
1864112S10075 1864 8 SI MM NOT_NAMED 1864-04-25 15:00:00 NR -18.9669 61.1742 main 384 370 __________P___ -1 -18.9669 61.1742 7 3 207
1864112S10075 1864 8 SI MM NOT_NAMED 1864-04-25 18:00:00 NR -19.1000 61.1000 main 370 356 __________O___ -1 -19.1000 61.1000 7 3 212
1864112S10075 1864 8 SI MM NOT_NAMED 1864-04-25 21:00:00 NR -19.2556 60.9821 main 352 339 __________P___ -1 -19.2556 60.9821 7 4 216
1864112S10075 1864 8 SI MM NOT_NAMED 1864-04-26 00:00:00 NR -19.4200 60.8574 main 339 313 __________P___ -1 -19.4200 60.8574 7 4 214
1864112S10075 1864 8 SI MM NOT_NAMED 1864-04-26 03:00:00 NR -19.5994 60.7289 main 313 297 __________P___ -1 -19.5994 60.7289 7 5 213
1864112S10075 1864 8 SI MM NOT_NAMED 1864-04-26 06:00:00 NR -19.8000 60.6000 main 297 283 __________O___ -1 -19.8000 60.6000 7 5 210
1864112S10075 1864 8 SI MM NOT_NAMED 1864-04-26 09:00:00 NR -20.0325 60.4589 main 283 260 __________P___ -1 -20.0325 60.4589 7 6 208
1864112S10075 1864 8 SI MM NOT_NAMED 1864-04-26 12:00:00 NR -20.2851 60.3203 main 260 250 __________P___ -1 -20.2851 60.3203 7 6 206
1864112S10075 1864 8 SI MM NOT_NAMED 1864-04-26 15:00:00 NR -20.5450 60.1964 main 251 243 __________P___ -1 -20.5450 60.1964 7 6 202
1864112S10075 1864 8 SI MM NOT_NAMED 1864-04-26 18:00:00 NR -20.8000 60.1000 main 245 241 __________O___ -1 -20.8000 60.1000 7 5 197
1864112S10075 1864 8 SI MM NOT_NAMED 1864-04-26 21:00:00 NR -21.0403 60.0398 main 241 241 __________P___ -1 -21.0403 60.0398 7 5 191
1864112S10075 1864 8 SI MM NOT_NAMED 1864-04-27 00:00:00 NR -21.2674 60.0097 main 254 254 __________P___ -1 -21.2674 60.0097 7 4 185
1864112S10075 1864 8 SI MM NOT_NAMED 1864-04-27 03:00:00 NR -21.4859 59.9998 main 263 263 __________P___ -1 -21.4859 59.9998 7 4 184
1864112S10075 1864 8 SI MM NOT_NAMED 1864-04-27 06:00:00 NR -21.7000 60.0000 main 273 __________O___ -1 -21.7000 60.0000 7 4 0

About IBTrACS Database

This database is a web-friendly format of International Best Track Archive for Climate Stewardship (IBTrACS), a global best track data archive curated by NOAA dating back to 1842.

Updated: 2021-10-21